PWSweather.com
Personal Weather Stations
Station Observations
728536
Kristiansand, FlekkeroyNO 4625

KristiansandFlekkeroyNO 4625

Lat: 58.0860587, Lon: 8.0151742

Elevation: 36

Station Type: Davis Vantage Pro2

http://www.paulen.no

Latest ConditionsUpdated 12:00:01 PM GMT+01:01 Thursday, Nov 23, 2017
Currently Today's Max Today's Min Today's Average
Temperature 50.6°F10.3°C 52.1°F11.2°C 50.6°F10.3°C 51.6°F10.9°C
Dew Point 49.2°F9.6°C 49.5°F9.7°C 47.9°F8.8°C 48.8°F9.3°C
Winds 15.0 mph S24.1 kmh S 26.5 mph S42.6 kmh S - 20.1 mph 32.3 kmh
Wind Gusts 21.9 mph35.2 kmh 39.1 mph62.9 kmh - -
Humidity 95% 95% 87% 90%
Pressure 29.00 in982.1 mb 29.10 in985.4 mb 28.99 in981.7 mb -
Precipitation - 0.06 in1.5 mm - -
Hour Temp Dew Point Humidity Winds Wind Gusts Pressure Precip Precip Rate Daily Precip Total
12:00 PM 50.6°F10.3°C 49.2°F9.6°C 95% 15.0 mph S24.1 kmh S 21.9 mph35.2 kmh 29.00 in982.1 mb - 0.00 in0.0 mm 0.06 in1.5 mm
11:50 AM 50.8°F10.4°C 49.1°F9.5°C 94% 16.1 mph S25.9 kmh S 26.5 mph42.6 kmh 29.01 in982.4 mb - 0.00 in0.0 mm 0.06 in1.5 mm
11:40 AM 51.0°F10.6°C 49.3°F9.6°C 94% 17.3 mph SSW27.8 kmh SSW 25.3 mph40.7 kmh 29.01 in982.4 mb - 0.00 in0.0 mm 0.06 in1.5 mm
11:30 AM 51.1°F10.6°C 49.4°F9.7°C 94% 18.4 mph S29.6 kmh S 26.5 mph42.6 kmh 29.01 in982.4 mb - 0.00 in0.0 mm 0.06 in1.5 mm
11:20 AM 51.3°F10.7°C 49.3°F9.6°C 93% 18.4 mph S29.6 kmh S 27.6 mph44.4 kmh 29.02 in982.7 mb - 0.01 in0.3 mm 0.06 in1.5 mm
11:10 AM 51.2°F10.7°C 49.2°F9.6°C 93% 15.0 mph SW24.1 kmh SW 27.6 mph44.4 kmh 29.02 in982.7 mb - 0.00 in0.0 mm 0.06 in1.5 mm
10:10 AM 52.0°F11.1°C 49.2°F9.6°C 90% 21.9 mph S35.2 kmh S 36.8 mph59.2 kmh 29.01 in982.4 mb - 0.00 in0.0 mm 0.06 in1.5 mm
10:00 AM 51.9°F11.1°C 49.4°F9.7°C 91% 16.1 mph S25.9 kmh S 23.0 mph37.0 kmh 29.01 in982.4 mb - 0.00 in0.0 mm 0.06 in1.5 mm
09:50 AM 51.8°F11.0°C 49.2°F9.6°C 91% 19.6 mph SSW31.5 kmh SSW 23.0 mph37.0 kmh 29.00 in982.1 mb - 0.01 in0.3 mm 0.06 in1.5 mm
09:40 AM 51.8°F11.0°C 49.0°F9.4°C 90% 19.6 mph S31.5 kmh S 31.1 mph50.1 kmh 29.00 in982.1 mb - 0.00 in0.0 mm 0.05 in1.3 mm
09:30 AM 52.0°F11.1°C 49.1°F9.5°C 90% 23.0 mph S37.0 kmh S 31.1 mph50.1 kmh 28.99 in981.7 mb - 0.00 in0.0 mm 0.05 in1.3 mm
09:20 AM 52.1°F11.2°C 49.0°F9.4°C 89% 24.2 mph S38.9 kmh S 32.2 mph51.8 kmh 28.99 in981.7 mb - 0.00 in0.0 mm 0.05 in1.3 mm
09:10 AM 51.9°F11.1°C 49.1°F9.5°C 90% 24.2 mph S38.9 kmh S 32.2 mph51.8 kmh 28.99 in981.7 mb - 0.00 in0.0 mm 0.05 in1.3 mm
09:00 AM 51.9°F11.1°C 49.1°F9.5°C 90% 19.6 mph S31.5 kmh S 34.5 mph55.5 kmh 28.99 in981.7 mb - 0.00 in0.0 mm 0.05 in1.3 mm
08:50 AM 52.0°F11.1°C 49.2°F9.6°C 90% 23.0 mph S37.0 kmh S 35.7 mph57.5 kmh 28.99 in981.7 mb - 0.00 in0.0 mm 0.05 in1.3 mm
08:40 AM 52.1°F11.2°C 49.5°F9.7°C 91% 23.0 mph S37.0 kmh S 36.8 mph59.2 kmh 28.99 in981.7 mb - 0.00 in0.0 mm 0.05 in1.3 mm
08:30 AM 51.6°F10.9°C 49.4°F9.7°C 92% 26.5 mph S42.6 kmh S 36.8 mph59.2 kmh 28.99 in981.7 mb - 0.00 in0.0 mm 0.05 in1.3 mm
08:20 AM 51.2°F10.7°C 49.3°F9.6°C 93% 23.0 mph S37.0 kmh S 27.6 mph44.4 kmh 28.99 in981.7 mb - 0.01 in0.3 mm 0.05 in1.3 mm
08:10 AM 51.4°F10.8°C 49.4°F9.7°C 93% 19.6 mph S31.5 kmh S 27.6 mph44.4 kmh 28.99 in981.7 mb - 0.01 in0.3 mm 0.04 in1.0 mm
08:00 AM 51.0°F10.6°C 49.0°F9.4°C 93% 17.3 mph S27.8 kmh S 26.5 mph42.6 kmh 28.99 in981.7 mb - 0.01 in0.3 mm 0.03 in0.8 mm
07:50 AM 51.1°F10.6°C 49.1°F9.5°C 93% 24.2 mph S38.9 kmh S 33.4 mph53.8 kmh 28.99 in981.7 mb - 0.02 in0.5 mm 0.03 in0.8 mm
07:40 AM 51.5°F10.8°C 49.0°F9.4°C 91% 25.3 mph S40.7 kmh S 39.1 mph62.9 kmh 28.99 in981.7 mb - 0.00 in0.0 mm 0.02 in0.5 mm
07:30 AM 52.0°F11.1°C 48.9°F9.4°C 89% 19.6 mph S31.5 kmh S 19.6 mph31.5 kmh 28.99 in981.7 mb - 0.00 in0.0 mm 0.02 in0.5 mm
07:20 AM 52.0°F11.1°C 48.9°F9.4°C 89% 19.6 mph S31.5 kmh S 26.5 mph42.6 kmh 29.00 in982.1 mb - 0.00 in0.0 mm 0.02 in0.5 mm
07:10 AM 52.0°F11.1°C 48.8°F9.3°C 89% 19.6 mph S31.5 kmh S 32.2 mph51.8 kmh 29.00 in982.1 mb - 0.00 in0.0 mm 0.02 in0.5 mm
07:00 AM 51.9°F11.1°C 48.8°F9.3°C 89% 18.4 mph S29.6 kmh S 26.5 mph42.6 kmh 29.00 in982.1 mb - 0.00 in0.0 mm 0.02 in0.5 mm
06:50 AM 51.8°F11.0°C 48.7°F9.3°C 89% 19.6 mph S31.5 kmh S 27.6 mph44.4 kmh 29.00 in982.1 mb - 0.00 in0.0 mm 0.02 in0.5 mm
06:40 AM 51.9°F11.1°C 48.8°F9.3°C 89% 24.2 mph S38.9 kmh S 35.7 mph57.5 kmh 29.01 in982.4 mb - 0.00 in0.0 mm 0.02 in0.5 mm
06:30 AM 52.0°F11.1°C 48.6°F9.2°C 88% 21.9 mph S35.2 kmh S 34.5 mph55.5 kmh 29.01 in982.4 mb - 0.00 in0.0 mm 0.02 in0.5 mm
06:20 AM 51.8°F11.0°C 48.7°F9.3°C 89% 21.9 mph S35.2 kmh S 31.1 mph50.1 kmh 29.02 in982.7 mb - 0.00 in0.0 mm 0.02 in0.5 mm
06:10 AM 51.8°F11.0°C 48.4°F9.1°C 88% 21.9 mph S35.2 kmh S 29.9 mph48.1 kmh 29.02 in982.7 mb - 0.00 in0.0 mm 0.02 in0.5 mm
06:00 AM 51.8°F11.0°C 48.4°F9.1°C 88% 21.9 mph S35.2 kmh S 29.9 mph48.1 kmh 29.02 in982.7 mb - 0.00 in0.0 mm 0.02 in0.5 mm
05:50 AM 51.8°F11.0°C 48.4°F9.1°C 88% 20.7 mph S33.3 kmh S 26.5 mph42.6 kmh 29.03 in983.1 mb - 0.00 in0.0 mm 0.02 in0.5 mm
05:40 AM 51.8°F11.0°C 48.3°F9.1°C 88% 24.2 mph S38.9 kmh S 34.5 mph55.5 kmh 29.03 in983.1 mb - 0.00 in0.0 mm 0.02 in0.5 mm
05:30 AM 51.8°F11.0°C 48.4°F9.1°C 88% 19.6 mph S31.5 kmh S 32.2 mph51.8 kmh 29.03 in983.1 mb - 0.00 in0.0 mm 0.02 in0.5 mm
05:20 AM 51.8°F11.0°C 48.4°F9.1°C 88% 19.6 mph S31.5 kmh S 29.9 mph48.1 kmh 29.04 in983.4 mb - 0.00 in0.0 mm 0.02 in0.5 mm
05:10 AM 51.8°F11.0°C 48.4°F9.1°C 88% 18.4 mph S29.6 kmh S 27.6 mph44.4 kmh 29.04 in983.4 mb - 0.00 in0.0 mm 0.02 in0.5 mm
05:00 AM 51.9°F11.1°C 48.1°F8.9°C 87% 18.4 mph S29.6 kmh S 26.5 mph42.6 kmh 29.04 in983.4 mb - 0.00 in0.0 mm 0.02 in0.5 mm
04:50 AM 52.0°F11.1°C 48.3°F9.1°C 87% 19.6 mph S31.5 kmh S 27.6 mph44.4 kmh 29.05 in983.7 mb - 0.00 in0.0 mm 0.02 in0.5 mm
04:40 AM 51.9°F11.1°C 48.2°F9.0°C 87% 23.0 mph S37.0 kmh S 32.2 mph51.8 kmh 29.05 in983.7 mb - 0.00 in0.0 mm 0.02 in0.5 mm
04:30 AM 51.9°F11.1°C 48.2°F9.0°C 87% 21.9 mph S35.2 kmh S 27.6 mph44.4 kmh 29.05 in983.7 mb - 0.00 in0.0 mm 0.02 in0.5 mm
04:20 AM 51.7°F10.9°C 48.3°F9.1°C 88% 19.6 mph S31.5 kmh S 26.5 mph42.6 kmh 29.05 in983.7 mb - 0.00 in0.0 mm 0.02 in0.5 mm
04:10 AM 51.7°F10.9°C 48.3°F9.1°C 88% 23.0 mph S37.0 kmh S 34.5 mph55.5 kmh 29.05 in983.7 mb - 0.00 in0.0 mm 0.02 in0.5 mm
04:00 AM 51.6°F10.9°C 48.2°F9.0°C 88% 17.3 mph S27.8 kmh S 19.6 mph31.5 kmh 29.05 in983.7 mb - 0.00 in0.0 mm 0.02 in0.5 mm
03:50 AM 51.7°F10.9°C 48.2°F9.0°C 88% 21.9 mph S35.2 kmh S 28.8 mph46.3 kmh 29.05 in983.7 mb - 0.00 in0.0 mm 0.02 in0.5 mm
03:40 AM 51.5°F10.8°C 48.1°F8.9°C 88% 20.7 mph S33.3 kmh S 34.5 mph55.5 kmh 29.05 in983.7 mb - 0.00 in0.0 mm 0.02 in0.5 mm
03:30 AM 51.4°F10.8°C 48.0°F8.9°C 88% 19.6 mph S31.5 kmh S 29.9 mph48.1 kmh 29.06 in984.1 mb - 0.00 in0.0 mm 0.02 in0.5 mm
03:20 AM 51.4°F10.8°C 47.9°F8.8°C 88% 18.4 mph S29.6 kmh S 26.5 mph42.6 kmh 29.06 in984.1 mb - 0.00 in0.0 mm 0.02 in0.5 mm
03:10 AM 51.1°F10.6°C 48.0°F8.9°C 89% 19.6 mph S31.5 kmh S 26.5 mph42.6 kmh 29.06 in984.1 mb - 0.00 in0.0 mm 0.02 in0.5 mm
03:00 AM 51.0°F10.6°C 47.9°F8.8°C 89% 21.9 mph S35.2 kmh S 35.7 mph57.5 kmh 29.06 in984.1 mb - 0.01 in0.3 mm 0.02 in0.5 mm
02:50 AM 51.2°F10.7°C 48.1°F8.9°C 89% 17.3 mph S27.8 kmh S 26.5 mph42.6 kmh 29.07 in984.4 mb - 0.00 in0.0 mm 0.01 in0.3 mm
02:40 AM 51.2°F10.7°C 48.1°F8.9°C 89% 20.7 mph S33.3 kmh S 26.5 mph42.6 kmh 29.07 in984.4 mb - 0.00 in0.0 mm 0.01 in0.3 mm
02:30 AM 51.1°F10.6°C 48.3°F9.1°C 90% 19.6 mph S31.5 kmh S 23.0 mph37.0 kmh 29.07 in984.4 mb - 0.00 in0.0 mm 0.01 in0.3 mm
02:20 AM 51.1°F10.6°C 48.3°F9.1°C 90% 20.7 mph S33.3 kmh S 27.6 mph44.4 kmh 29.08 in984.8 mb - 0.00 in0.0 mm 0.01 in0.3 mm
02:10 AM 51.3°F10.7°C 48.5°F9.2°C 90% 17.3 mph S27.8 kmh S 26.5 mph42.6 kmh 29.09 in985.1 mb - 0.00 in0.0 mm 0.01 in0.3 mm
02:00 AM 51.4°F10.8°C 48.6°F9.2°C 90% 20.7 mph S33.3 kmh S 27.6 mph44.4 kmh 29.09 in985.1 mb - 0.00 in0.0 mm 0.01 in0.3 mm
01:50 AM 51.5°F10.8°C 48.7°F9.3°C 90% 21.9 mph S35.2 kmh S 26.5 mph42.6 kmh 29.09 in985.1 mb - 0.00 in0.0 mm 0.01 in0.3 mm
01:40 AM 51.5°F10.8°C 49.0°F9.4°C 91% 19.6 mph S31.5 kmh S 29.9 mph48.1 kmh 29.09 in985.1 mb - 0.00 in0.0 mm 0.01 in0.3 mm
01:30 AM 51.4°F10.8°C 48.9°F9.4°C 91% 16.1 mph S25.9 kmh S 26.5 mph42.6 kmh 29.09 in985.1 mb - 0.00 in0.0 mm 0.01 in0.3 mm
01:20 AM 51.4°F10.8°C 49.2°F9.6°C 92% 17.3 mph S27.8 kmh S 24.2 mph38.9 kmh 29.09 in985.1 mb - 0.00 in0.0 mm 0.01 in0.3 mm
01:10 AM 51.3°F10.7°C 49.1°F9.5°C 92% 18.4 mph S29.6 kmh S 24.2 mph38.9 kmh 29.09 in985.1 mb - 0.00 in0.0 mm 0.01 in0.3 mm
01:00 AM 51.4°F10.8°C 49.2°F9.6°C 92% 20.7 mph S33.3 kmh S 23.0 mph37.0 kmh 29.09 in985.1 mb - 0.00 in0.0 mm 0.01 in0.3 mm
12:50 AM 51.5°F10.8°C 49.3°F9.6°C 92% 18.4 mph S29.6 kmh S 29.9 mph48.1 kmh 29.09 in985.1 mb - 0.00 in0.0 mm 0.01 in0.3 mm
12:40 AM 51.4°F10.8°C 49.4°F9.7°C 93% 19.6 mph S31.5 kmh S 31.1 mph50.1 kmh 29.09 in985.1 mb - 0.00 in0.0 mm 0.01 in0.3 mm
12:30 AM 51.2°F10.7°C 49.2°F9.6°C 93% 17.3 mph S27.8 kmh S 25.3 mph40.7 kmh 29.09 in985.1 mb - 0.01 in0.3 mm 0.01 in0.3 mm
12:20 AM 51.5°F10.8°C 49.3°F9.6°C 92% 17.3 mph S27.8 kmh S 21.9 mph35.2 kmh 29.09 in985.1 mb - 0.00 in0.0 mm 0.00 in0.0 mm
12:10 AM 51.6°F10.9°C 49.3°F9.6°C 92% 17.3 mph S27.8 kmh S 25.3 mph40.7 kmh 29.10 in985.4 mb - 0.00 in0.0 mm 0.00 in0.0 mm
12:00 AM 51.5°F10.8°C 49.3°F9.6°C 92% 21.9 mph S35.2 kmh S 29.9 mph48.1 kmh 29.10 in985.4 mb - 0.00 in0.0 mm 0.00 in0.0 mm